x

South Bermuda - 300 Nm Sse Of Bermuda (41049) Wave Buoy

4:50am - Sat 27th May 2017 All times are UTC.

  • Sig Wave height 3.3ft
  • Swell Direction
  • Peak Period 7s
  • Average Period 6s
  • Wind
    9mph, 11mph gusts
  • Sea Temp 77°f
  • Air Temp 76°f
  • Sea Pressure 1021.2mb

More Historic Weather Station data

Upgrade to MSW Pro to gain access to the past 30 days of data for over 8000 Wavebouys and Weather Stations around the globe.

Join Pro

Comparision Forecast

View Surf forecast
   
Sat 05/27 4:50am 3.5ft 7s 6s 9 11 mph 1021.2mb 77f 76f
3:50am 3.5ft 7s 6s 9 11 mph 1021.6mb 77f 76f
2:50am 3.5ft 7s 6s 7 9 mph 1022.2mb 77f 76f
1:50am 3.5ft 7s 6s 4 7 mph 1022.6mb 77f 76f
12:50am 3.5ft 8s 6s 7 7 mph 1022.4mb 77f 76f
Fri 05/26 11:50pm 3.5ft 6s 6s 7 9 mph 1022mb 77f 76f
10:50pm 3.5ft 6s 5s 9 11 mph 1021.8mb 78f 76f
9:50pm 3ft 5s 5s 7 9 mph 1021.6mb 78f 76f
8:50pm 3.5ft 8s 5s 9 11 mph 1021.4mb 78f 76f
7:50pm 3.5ft 5s 5s 7 9 mph 1021.6mb 78f 76f
6:50pm 3.5ft 8s 5s 9 11 mph 1021.7mb 78f 76f
5:50pm 3.5ft 6s 5s 11 13 mph 1021.8mb 77f 76f
4:50pm 3.5ft 8s 5s 13 16 mph 1022.2mb 77f 76f
3:50pm 3.5ft 5s 5s 16 18 mph 1022.5mb 77f 76f
2:50pm 3.5ft 6s 5s 13 18 mph 1022.9mb 77f 76f
1:50pm 3.5ft 9s 5s 16 20 mph 1022.8mb 77f 76f
12:50pm 3.5ft 6s 5s 16 20 mph 1023.1mb 77f 76f
11:50am 3.5ft 9s 5s 16 18 mph 1023.3mb 77f 76f
10:50am 3.5ft 9s 5s 11 13 mph 1023.4mb 77f 76f
9:50am 3.5ft 6s 5s 11 13 mph 1023.2mb 77f 76f
8:50am 3.5ft 8s 5s 9 11 mph 1022.9mb 77f 75f
7:50am 3.5ft 9s 5s 9 11 mph 1022.7mb 77f 75f
6:50am 3.5ft 9s 5s 9 11 mph 1022.8mb 77f 76f
5:50am 3.5ft 8s 5s 11 16 mph 1022.8mb 77f 76f
4:50am 3.5ft 11s 5s 11 13 mph 1023.1mb 77f 76f
3:50am 3.5ft 11s 5s 13 16 mph 1023.1mb 77f 76f
2:50am 3.5ft 9s 5s 13 16 mph 1023.4mb 77f 76f
1:50am 3.5ft 8s 6s 13 16 mph 1023.5mb 77f 76f
12:50am 3.5ft 8s 6s 9 11 mph 1023mb 77f 76f
Thu 05/25 11:50pm 3.5ft 11s 6s 13 16 mph 1022.5mb 77f 76f
10:50pm 3.5ft 8s 6s 11 13 mph 1022.1mb 78f 76f
9:50pm 3.5ft 10s 6s 13 16 mph 1021.6mb 78f 77f
8:50pm 3.5ft 9s 6s 11 13 mph 1022mb 78f 77f
7:50pm 3.5ft 8s 6s 11 13 mph 1022.1mb 78f 76f
6:50pm 3ft 9s 5s 9 11 mph 1022.8mb 78f 76f
5:50pm 3.5ft 8s 5s 11 13 mph 1023.5mb 78f 76f
4:50pm 3.5ft 8s 5s 13 16 mph 1023.8mb 77f 76f
3:50pm 3.5ft 8s 5s 13 16 mph 1024.4mb 77f 76f
2:50pm 3.5ft 9s 5s 13 16 mph 1024.7mb 77f 76f
1:50pm 3.5ft 8s 5s 16 18 mph 1024.2mb 77f 76f
12:50pm 3.5ft 9s 5s 13 16 mph 1024.1mb 77f 76f
11:50am 3.5ft 9s 5s 13 16 mph 1023.9mb 77f 76f
10:50am 3.5ft 10s 6s 13 16 mph 1023.3mb 77f 76f
9:50am 3.5ft 8s 5s 16 20 mph 1022.4mb 77f 76f
8:50am 3.5ft 9s 5s 16 18 mph 1021.9mb 77f 75f
7:50am 3.5ft 8s 5s 13 13 mph 1022mb 77f 76f
6:50am 4ft 8s 6s 16 18 mph 1021.9mb 77f 76f
5:50am 4ft 8s 6s 13 13 mph 1022.7mb 77f 76f
4:50am 4ft 10s 6s 11 13 mph 1023.2mb 77f 76f
3:50am 4ft 8s 6s 13 16 mph 1023.5mb 77f 76f
2:50am 4ft 8s 6s 16 18 mph 1023.4mb 77f 76f
1:50am 3.5ft 10s 6s 13 16 mph 1023.6mb 77f 77f
12:50am 3.5ft 10s 6s 11 13 mph 1023mb 78f 77f
Wed 05/24 11:50pm 4ft 8s 6s 11 13 mph 1022.3mb 78f 77f
10:50pm 3.5ft 10s 6s 11 13 mph 1021.7mb 78f 77f
9:50pm 4ft 8s 6s 2 4 mph 1021.5mb 78f 76f
8:50pm 3.5ft 9s 6s 4 7 mph 1021.4mb 78f 75f
7:50pm 4.5ft 10s 6s 2 4 mph 1021.1mb 78f 78f
6:50pm 4.5ft 10s 6s 7 9 mph 1021.8mb 78f 77f
5:50pm 4.5ft 11s 6s 13 20 mph 1021.9mb 78f 77f
4:50pm 4.5ft 11s 6s 16 18 mph 1022mb 78f 77f
3:50pm 5ft 11s 7s 16 20 mph 1021.7mb 78f 76f
2:50pm 5ft 10s 7s 16 18 mph 1021.9mb 77f 76f
1:50pm 5ft 11s 8s 11 13 mph 1021.9mb 77f 76f
12:50pm 5ft 11s 8s 11 13 mph 1022mb 77f 76f
11:50am 5ft 11s 8s 11 13 mph 1021.8mb 77f 76f
10:50am 6ft 11s 9s 9 11 mph 1021.6mb 77f 76f
9:50am 5.5ft 12s 9s 7 11 mph 1021.2mb 77f 75f
8:50am 6ft 11s 9s 7 9 mph 1020.7mb 77f 75f
7:50am 6.5ft 12s 9s 7 9 mph 1020.8mb 77f 75f
6:50am 6ft 12s 9s 7 9 mph 1020.8mb 77f 75f
5:50am 6ft 12s 9s 7 9 mph 1021.2mb 77f 75f
4:50am 6.5ft 13s 9s 9 11 mph 1021.8mb 78f 75f
3:50am 6ft 11s 9s 7 9 mph 1022.3mb 78f 75f
2:50am 6.5ft 13s 9s 7 9 mph 1022.6mb 78f 75f
1:50am 6ft 13s 9s 7 7 mph 1022.7mb 78f 75f
12:50am 6ft 13s 9s 7 9 mph 1022.2mb 78f 75f
Tue 05/23 11:50pm 6ft 12s 9s 4 9 mph 1021.8mb 78f 75f
10:50pm 6ft 13s 9s 4 7 mph 1021.5mb 78f 75f
9:50pm 6ft 12s 9s 7 9 mph 1021mb 78f 75f
8:50pm 6.5ft 12s 10s 4 7 mph 1021mb 79f 75f
7:50pm 6ft 12s 9s 4 7 mph 1021mb 79f 75f
6:50pm 6ft 12s 9s 4 7 mph 1021.3mb 79f 74f
5:50pm 7ft 12s 10s 7 9 mph 1021.6mb 78f 74f
4:50pm 6ft 13s 9s 4 7 mph 1021.7mb 78f 74f
3:50pm 6ft 13s 10s 7 9 mph 1021.9mb 78f 74f
2:50pm 5.5ft 13s 9s 7 9 mph 1021.9mb 78f 73f
1:50pm 5ft 13s 9s 4 7 mph 1022.1mb 77f 74f
12:50pm 5ft 13s 9s 4 4 mph 1022.3mb 77f 74f
11:50am 4.5ft 14s 8s 4 7 mph 1022.1mb 77f 74f
10:50am 4ft 14s 8s 2 4 mph 1021.7mb 77f 74f
9:50am 4ft 14s 8s 4 4 mph 1021.1mb 77f 73f
8:50am 4ft 8s 7s 4 7 mph 1020.8mb 77f 73f
7:50am 3.5ft 8s 7s 4 4 mph 1020.7mb 77f 73f
6:50am 3ft 8s 7s 4 7 mph 1020.5mb 77f 73f